createdAt,value
2023-02-02T00:03:17.714Z,16.3
2023-02-02T00:09:23.477Z,16.2
2023-02-02T00:15:29.282Z,16.2
2023-02-02T00:21:35.247Z,16.1
2023-02-02T00:27:41.285Z,16.2
2023-02-02T00:33:46.864Z,16.1
2023-02-02T00:39:52.370Z,16.1
2023-02-02T00:45:58.169Z,16.1
2023-02-02T00:52:03.925Z,16.1
2023-02-02T00:58:09.915Z,16
2023-02-02T01:04:15.889Z,16
2023-02-02T01:10:21.501Z,16
2023-02-02T01:16:27.448Z,16
2023-02-02T01:22:33.007Z,16
2023-02-02T01:28:39.201Z,16
2023-02-02T01:34:45.382Z,16
2023-02-02T01:40:50.944Z,16
2023-02-02T01:46:56.120Z,16
2023-02-02T01:53:02.297Z,16
2023-02-02T01:59:07.686Z,16
2023-02-02T02:05:13.040Z,16
2023-02-02T02:11:18.474Z,15.9
2023-02-02T02:17:24.075Z,15.9
2023-02-02T02:23:29.552Z,15.9
2023-02-02T02:29:34.693Z,15.9
2023-02-02T02:35:40.472Z,16
2023-02-02T02:41:46.271Z,15.9
2023-02-02T02:47:52.250Z,15.9
2023-02-02T02:53:58.205Z,15.9
2023-02-02T03:00:04.002Z,15.9
2023-02-02T03:06:10.177Z,15.9
2023-02-02T03:12:15.767Z,15.9
2023-02-02T03:18:22.002Z,15.9
2023-02-02T03:24:27.239Z,15.9
2023-02-02T03:30:32.498Z,15.9
2023-02-02T03:36:38.046Z,15.9
2023-02-02T03:42:44.419Z,15.9
2023-02-02T03:48:49.999Z,15.9
2023-02-02T03:54:56.267Z,15.9
2023-02-02T04:01:02.182Z,15.9
2023-02-02T04:07:08.154Z,15.8
2023-02-02T04:13:13.609Z,15.8
2023-02-02T04:19:19.544Z,15.8
2023-02-02T04:25:25.314Z,15.8
2023-02-02T04:31:31.360Z,15.9
2023-02-02T04:37:37.232Z,15.8
2023-02-02T04:43:43.562Z,15.9
2023-02-02T04:49:49.718Z,15.9
2023-02-02T04:55:55.877Z,16.1
2023-02-02T05:02:01.177Z,16.2
2023-02-02T05:08:06.819Z,16.4
2023-02-02T05:14:11.896Z,16.5
2023-02-02T05:20:17.880Z,16.6
2023-02-02T05:26:23.744Z,16.7
2023-02-02T05:32:29.856Z,16.7
2023-02-02T05:38:35.604Z,16.8
2023-02-02T05:44:41.318Z,16.8
2023-02-02T05:50:46.445Z,16.8
2023-02-02T05:56:52.115Z,16.8
2023-02-02T06:02:57.959Z,16.7
2023-02-02T06:09:03.482Z,16.7
2023-02-02T06:15:09.452Z,16.7
2023-02-02T06:21:15.443Z,16.7
2023-02-02T06:27:21.425Z,16.7
2023-02-02T06:33:27.445Z,16.7
2023-02-02T06:39:33.377Z,16.6
2023-02-02T06:45:38.948Z,16.7
2023-02-02T06:51:44.528Z,16.7
2023-02-02T06:57:50.711Z,16.7
2023-02-02T07:03:56.329Z,16.7
2023-02-02T07:10:02.165Z,16.7
2023-02-02T07:16:07.935Z,16.7
2023-02-02T07:22:13.914Z,16.8
2023-02-02T07:28:19.487Z,16.8
2023-02-02T07:34:25.591Z,16.8
2023-02-02T07:40:31.156Z,16.8
2023-02-02T07:46:37.338Z,16.7
2023-02-02T07:52:44.327Z,16.8
2023-02-02T07:58:50.638Z,16.9
2023-02-02T08:04:56.163Z,16.8
2023-02-02T08:11:02.486Z,16.8
2023-02-02T08:17:08.075Z,16.9
2023-02-02T08:23:14.343Z,16.9
2023-02-02T08:29:19.805Z,16.8
2023-02-02T08:35:25.892Z,16.8
2023-02-02T08:41:31.165Z,16.8
2023-02-02T08:47:37.175Z,16.8
2023-02-02T08:53:43.137Z,16.8
2023-02-02T08:59:49.522Z,16.8
2023-02-02T09:05:55.367Z,16.8
2023-02-02T09:12:01.666Z,16.8
2023-02-02T09:18:07.520Z,16.8
2023-02-02T09:24:13.645Z,16.8
2023-02-02T09:30:19.015Z,16.8
2023-02-02T09:36:25.205Z,16.8
2023-02-02T09:42:31.162Z,16.8
2023-02-02T09:48:36.963Z,16.8
2023-02-02T09:54:42.547Z,16.8
2023-02-02T10:00:48.916Z,16.8
2023-02-02T10:06:54.957Z,16.7
2023-02-02T10:13:00.885Z,16.7
2023-02-02T10:19:06.476Z,16.7
2023-02-02T10:25:12.229Z,16.7
2023-02-02T10:31:18.147Z,16.7
2023-02-02T10:37:24.637Z,16.7
2023-02-02T10:43:30.393Z,16.6
2023-02-02T10:49:35.840Z,16.6
2023-02-02T10:55:41.357Z,16.6
2023-02-02T11:01:47.060Z,16.6
2023-02-02T11:07:53.063Z,16.6
2023-02-02T11:13:58.722Z,16.6
2023-02-02T11:20:03.803Z,16.5
2023-02-02T11:26:09.199Z,16.6
2023-02-02T11:32:14.957Z,16.5
2023-02-02T11:38:20.935Z,16.5
2023-02-02T11:44:26.722Z,16.5
2023-02-02T11:50:32.515Z,16.4
2023-02-02T11:56:38.666Z,16.5
2023-02-02T12:02:44.446Z,16.5
2023-02-02T12:08:50.069Z,16.5
2023-02-02T12:14:56.004Z,16.4
2023-02-02T12:21:02.401Z,16.3
2023-02-02T12:27:08.402Z,16.3
2023-02-02T12:33:14.171Z,16.3
2023-02-02T12:39:20.149Z,16.2
2023-02-02T12:45:26.202Z,16.3
2023-02-02T12:51:32.105Z,16.3
2023-02-02T12:57:37.586Z,16.2
2023-02-02T13:03:43.957Z,16.2
2023-02-02T13:09:49.519Z,16.2
2023-02-02T13:15:55.600Z,16.1
2023-02-02T13:22:01.611Z,16.1
2023-02-02T13:28:07.442Z,16.1
2023-02-02T13:34:13.161Z,16.1
2023-02-02T13:40:19.550Z,16.1
2023-02-02T13:46:25.391Z,16.1
2023-02-02T13:52:31.089Z,16
2023-02-02T13:58:36.864Z,16
2023-02-02T14:04:43.463Z,16
2023-02-02T14:10:48.881Z,16.2
2023-02-02T14:16:54.435Z,16.3
2023-02-02T14:23:00.614Z,16.5
2023-02-02T14:29:06.634Z,16.6
2023-02-02T14:35:12.574Z,16.7
2023-02-02T14:41:18.800Z,16.8
2023-02-02T14:47:24.520Z,16.9
2023-02-02T14:53:30.888Z,16.9
2023-02-02T14:59:36.884Z,17
2023-02-02T15:05:43.291Z,17
2023-02-02T15:11:49.236Z,17
2023-02-02T15:17:55.241Z,17
2023-02-02T15:24:03.698Z,17
2023-02-02T15:30:09.533Z,16.9
2023-02-02T15:36:15.860Z,16.9
2023-02-02T15:42:21.875Z,16.8
2023-02-02T15:48:27.409Z,16.8
2023-02-02T15:54:33.174Z,16.9
2023-02-02T16:00:38.953Z,16.9
2023-02-02T16:06:45.564Z,16.8
2023-02-02T16:12:51.332Z,16.8
2023-02-02T16:18:57.310Z,16.9
2023-02-02T16:25:03.487Z,16.8
2023-02-02T16:31:09.096Z,16.9
2023-02-02T16:37:15.106Z,16.9
2023-02-02T16:43:20.811Z,16.9
2023-02-02T16:49:26.625Z,16.9
2023-02-02T16:55:47.723Z,16.9
2023-02-02T17:01:55.939Z,16.9
2023-02-02T17:08:02.589Z,16.9
2023-02-02T17:14:09.573Z,16.9
2023-02-02T17:20:15.129Z,16.9
2023-02-02T17:26:21.366Z,17
2023-02-02T17:32:27.311Z,16.9
2023-02-02T17:38:32.965Z,16.9
2023-02-02T17:44:38.238Z,17
2023-02-02T17:50:44.441Z,17
2023-02-02T17:56:50.277Z,17
2023-02-02T18:02:57.065Z,17
2023-02-02T18:09:03.197Z,17
2023-02-02T18:15:09.784Z,17
2023-02-02T18:21:15.598Z,17
2023-02-02T18:27:21.976Z,16.9
2023-02-02T18:33:27.932Z,16.9
2023-02-02T18:39:33.972Z,16.9
2023-02-02T18:45:39.506Z,16.9
2023-02-02T18:51:45.508Z,16.9
2023-02-02T18:57:51.479Z,16.9
2023-02-02T19:03:57.582Z,17
2023-02-02T19:10:03.644Z,16.9
2023-02-02T19:16:10.024Z,17
2023-02-02T19:22:15.799Z,17
2023-02-02T19:28:22.197Z,17
2023-02-02T19:34:28.561Z,17
2023-02-02T19:40:33.807Z,17
2023-02-02T19:46:39.749Z,17
2023-02-02T19:52:45.480Z,17
2023-02-02T19:58:51.116Z,17
2023-02-02T20:04:57.246Z,17
2023-02-02T20:11:03.643Z,17
2023-02-02T20:17:09.686Z,17
2023-02-02T20:23:16.030Z,17
2023-02-02T20:29:21.406Z,17
2023-02-02T20:35:27.161Z,17
2023-02-02T20:41:33.443Z,17
2023-02-02T20:47:39.117Z,17
2023-02-02T20:53:45.101Z,17
2023-02-02T20:59:50.797Z,17
2023-02-02T21:05:57.044Z,17
2023-02-02T21:12:03.051Z,17
2023-02-02T21:18:09.454Z,17
2023-02-02T21:24:15.019Z,17
2023-02-02T21:30:21.108Z,16.9
2023-02-02T21:36:27.590Z,16.9
2023-02-02T21:42:33.771Z,16.9
2023-02-02T21:48:39.790Z,16.9
2023-02-02T21:54:46.159Z,16.9
2023-02-02T22:00:52.127Z,16.9
2023-02-02T22:06:58.318Z,16.9
2023-02-02T22:13:03.887Z,16.8
2023-02-02T22:19:10.086Z,16.8
2023-02-02T22:25:15.881Z,16.8
2023-02-02T22:31:21.928Z,16.8
2023-02-02T22:37:28.216Z,16.8
2023-02-02T22:43:34.046Z,16.8
2023-02-02T22:49:40.165Z,16.7
2023-02-02T22:55:46.161Z,16.7
2023-02-02T23:01:52.240Z,16.7
2023-02-02T23:07:57.916Z,16.6
2023-02-02T23:14:03.921Z,16.6
2023-02-02T23:20:09.892Z,16.6
2023-02-02T23:26:16.081Z,16.6
2023-02-02T23:32:22.058Z,16.6
2023-02-02T23:38:28.067Z,16.5
2023-02-02T23:44:34.009Z,16.5
2023-02-02T23:50:39.794Z,16.5
2023-02-02T23:56:45.563Z,16.5
